sensor_id;sensor_type;location;lat;lon;timestamp;temperature;humidity
13798;DHT22;6970;51.340;3.240;2024-02-21T00:01:03;9.50;99.90
13798;DHT22;6970;51.340;3.240;2024-02-21T00:03:31;9.50;99.90
13798;DHT22;6970;51.340;3.240;2024-02-21T00:06:02;9.50;99.90
13798;DHT22;6970;51.340;3.240;2024-02-21T00:08:30;9.40;99.90
13798;DHT22;6970;51.340;3.240;2024-02-21T00:10:57;9.50;99.90
13798;DHT22;6970;51.340;3.240;2024-02-21T00:13:26;9.50;99.90
13798;DHT22;6970;51.340;3.240;2024-02-21T00:15:53;9.50;99.90
13798;DHT22;6970;51.340;3.240;2024-02-21T00:18:27;9.50;99.90
13798;DHT22;6970;51.340;3.240;2024-02-21T00:20:59;9.50;99.90
13798;DHT22;6970;51.340;3.240;2024-02-21T00:23:31;9.50;99.90
13798;DHT22;6970;51.340;3.240;2024-02-21T00:26:18;9.50;99.90
13798;DHT22;6970;51.340;3.240;2024-02-21T00:28:47;9.50;99.90
13798;DHT22;6970;51.340;3.240;2024-02-21T00:31:18;9.50;99.90
13798;DHT22;6970;51.340;3.240;2024-02-21T00:33:47;9.50;99.90
13798;DHT22;6970;51.340;3.240;2024-02-21T00:36:17;9.50;99.90
13798;DHT22;6970;51.340;3.240;2024-02-21T00:38:45;9.50;99.90
13798;DHT22;6970;51.340;3.240;2024-02-21T00:41:13;9.50;99.90
13798;DHT22;6970;51.340;3.240;2024-02-21T00:43:41;9.50;99.90
13798;DHT22;6970;51.340;3.240;2024-02-21T00:46:12;9.50;99.90
13798;DHT22;6970;51.340;3.240;2024-02-21T00:48:42;9.50;99.90
13798;DHT22;6970;51.340;3.240;2024-02-21T00:51:10;9.60;99.90
13798;DHT22;6970;51.340;3.240;2024-02-21T00:53:38;9.60;99.90
13798;DHT22;6970;51.340;3.240;2024-02-21T00:56:06;9.50;99.90
13798;DHT22;6970;51.340;3.240;2024-02-21T00:58:36;9.50;99.90
13798;DHT22;6970;51.340;3.240;2024-02-21T01:01:09;9.50;99.90
13798;DHT22;6970;51.340;3.240;2024-02-21T01:03:39;9.50;99.90
13798;DHT22;6970;51.340;3.240;2024-02-21T01:06:07;9.50;99.90
13798;DHT22;6970;51.340;3.240;2024-02-21T01:08:37;9.50;99.90
13798;DHT22;6970;51.340;3.240;2024-02-21T01:11:08;9.40;99.90
13798;DHT22;6970;51.340;3.240;2024-02-21T01:13:36;9.40;99.90
13798;DHT22;6970;51.340;3.240;2024-02-21T01:16:03;9.40;99.90
13798;DHT22;6970;51.340;3.240;2024-02-21T01:18:37;9.50;99.90
13798;DHT22;6970;51.340;3.240;2024-02-21T01:21:06;9.50;99.90
13798;DHT22;6970;51.340;3.240;2024-02-21T01:23:36;9.40;99.90
13798;DHT22;6970;51.340;3.240;2024-02-21T01:26:04;9.40;99.90
13798;DHT22;6970;51.340;3.240;2024-02-21T01:28:32;9.50;99.90
13798;DHT22;6970;51.340;3.240;2024-02-21T01:31:02;9.50;99.90
13798;DHT22;6970;51.340;3.240;2024-02-21T01:33:30;9.50;99.90
13798;DHT22;6970;51.340;3.240;2024-02-21T01:36:05;9.50;99.90
13798;DHT22;6970;51.340;3.240;2024-02-21T01:38:37;9.50;99.90
13798;DHT22;6970;51.340;3.240;2024-02-21T01:41:07;9.60;99.90
13798;DHT22;6970;51.340;3.240;2024-02-21T01:43:37;9.60;99.90
13798;DHT22;6970;51.340;3.240;2024-02-21T01:46:05;9.60;99.90
13798;DHT22;6970;51.340;3.240;2024-02-21T01:48:35;9.60;99.90
13798;DHT22;6970;51.340;3.240;2024-02-21T01:51:09;9.60;99.90
13798;DHT22;6970;51.340;3.240;2024-02-21T01:53:43;9.70;99.90
13798;DHT22;6970;51.340;3.240;2024-02-21T01:56:10;9.70;99.90
13798;DHT22;6970;51.340;3.240;2024-02-21T01:58:42;9.70;99.90
13798;DHT22;6970;51.340;3.240;2024-02-21T02:01:10;9.70;99.90
13798;DHT22;6970;51.340;3.240;2024-02-21T02:03:40;9.70;99.90
13798;DHT22;6970;51.340;3.240;2024-02-21T02:06:09;9.70;99.90
13798;DHT22;6970;51.340;3.240;2024-02-21T02:08:39;9.70;99.90
13798;DHT22;6970;51.340;3.240;2024-02-21T02:11:13;9.70;99.90
13798;DHT22;6970;51.340;3.240;2024-02-21T02:13:41;9.70;99.90
13798;DHT22;6970;51.340;3.240;2024-02-21T02:16:08;9.70;99.90
13798;DHT22;6970;51.340;3.240;2024-02-21T02:18:38;9.70;99.90
13798;DHT22;6970;51.340;3.240;2024-02-21T02:21:13;9.70;99.90
13798;DHT22;6970;51.340;3.240;2024-02-21T02:23:45;9.70;99.90
13798;DHT22;6970;51.340;3.240;2024-02-21T02:26:22;9.70;99.90
13798;DHT22;6970;51.340;3.240;2024-02-21T02:28:55;9.60;99.90
13798;DHT22;6970;51.340;3.240;2024-02-21T02:31:26;9.70;99.90
13798;DHT22;6970;51.340;3.240;2024-02-21T02:33:56;9.60;99.90
13798;DHT22;6970;51.340;3.240;2024-02-21T02:36:25;9.60;99.90
13798;DHT22;6970;51.340;3.240;2024-02-21T02:38:55;9.70;99.90
13798;DHT22;6970;51.340;3.240;2024-02-21T02:41:24;9.60;99.90
13798;DHT22;6970;51.340;3.240;2024-02-21T02:43:53;9.60;99.90
13798;DHT22;6970;51.340;3.240;2024-02-21T02:46:23;9.60;99.90
13798;DHT22;6970;51.340;3.240;2024-02-21T02:48:52;9.60;99.90
13798;DHT22;6970;51.340;3.240;2024-02-21T02:51:22;9.60;99.90
13798;DHT22;6970;51.340;3.240;2024-02-21T02:53:55;9.60;99.90
13798;DHT22;6970;51.340;3.240;2024-02-21T02:56:24;9.60;99.90
13798;DHT22;6970;51.340;3.240;2024-02-21T02:58:53;9.60;99.90
13798;DHT22;6970;51.340;3.240;2024-02-21T03:01:21;9.60;99.90
13798;DHT22;6970;51.340;3.240;2024-02-21T03:03:49;9.60;99.90
13798;DHT22;6970;51.340;3.240;2024-02-21T03:06:17;9.60;99.90
13798;DHT22;6970;51.340;3.240;2024-02-21T03:08:47;9.60;99.90
13798;DHT22;6970;51.340;3.240;2024-02-21T03:11:21;9.60;99.90
13798;DHT22;6970;51.340;3.240;2024-02-21T03:13:57;9.60;99.90
13798;DHT22;6970;51.340;3.240;2024-02-21T03:16:27;9.60;99.90
13798;DHT22;6970;51.340;3.240;2024-02-21T03:18:57;9.60;99.90
13798;DHT22;6970;51.340;3.240;2024-02-21T03:21:27;9.70;99.90
13798;DHT22;6970;51.340;3.240;2024-02-21T03:23:54;9.60;99.90
13798;DHT22;6970;51.340;3.240;2024-02-21T03:26:28;9.60;99.90
13798;DHT22;6970;51.340;3.240;2024-02-21T03:28:58;9.70;99.90
13798;DHT22;6970;51.340;3.240;2024-02-21T03:31:28;9.70;99.90
13798;DHT22;6970;51.340;3.240;2024-02-21T03:34:00;9.70;99.90
13798;DHT22;6970;51.340;3.240;2024-02-21T03:36:29;9.70;99.90
13798;DHT22;6970;51.340;3.240;2024-02-21T03:39:00;9.70;99.90
13798;DHT22;6970;51.340;3.240;2024-02-21T03:41:30;9.70;99.90
13798;DHT22;6970;51.340;3.240;2024-02-21T03:44:00;9.70;99.90
13798;DHT22;6970;51.340;3.240;2024-02-21T03:46:30;9.70;99.90
13798;DHT22;6970;51.340;3.240;2024-02-21T03:48:58;9.70;99.90
13798;DHT22;6970;51.340;3.240;2024-02-21T03:51:30;9.70;99.90
13798;DHT22;6970;51.340;3.240;2024-02-21T03:53:59;9.70;99.90
13798;DHT22;6970;51.340;3.240;2024-02-21T03:56:37;9.70;99.90
13798;DHT22;6970;51.340;3.240;2024-02-21T03:59:07;9.70;99.90
13798;DHT22;6970;51.340;3.240;2024-02-21T04:01:35;9.70;99.90
13798;DHT22;6970;51.340;3.240;2024-02-21T04:04:06;9.70;99.90
13798;DHT22;6970;51.340;3.240;2024-02-21T04:06:36;9.70;99.90
13798;DHT22;6970;51.340;3.240;2024-02-21T04:09:06;9.80;99.90
13798;DHT22;6970;51.340;3.240;2024-02-21T04:11:33;9.70;99.90
13798;DHT22;6970;51.340;3.240;2024-02-21T04:14:01;9.70;99.90
13798;DHT22;6970;51.340;3.240;2024-02-21T04:16:28;9.70;99.90
13798;DHT22;6970;51.340;3.240;2024-02-21T04:18:58;9.70;99.90
13798;DHT22;6970;51.340;3.240;2024-02-21T04:21:28;9.70;99.90
13798;DHT22;6970;51.340;3.240;2024-02-21T04:23:59;9.70;99.90
13798;DHT22;6970;51.340;3.240;2024-02-21T04:26:29;9.70;99.90
13798;DHT22;6970;51.340;3.240;2024-02-21T04:28:59;9.70;99.90
13798;DHT22;6970;51.340;3.240;2024-02-21T04:31:26;9.70;99.90
13798;DHT22;6970;51.340;3.240;2024-02-21T04:33:56;9.70;99.90
13798;DHT22;6970;51.340;3.240;2024-02-21T04:36:26;9.70;99.90
13798;DHT22;6970;51.340;3.240;2024-02-21T04:38:54;9.70;99.90
13798;DHT22;6970;51.340;3.240;2024-02-21T04:41:24;9.70;99.90
13798;DHT22;6970;51.340;3.240;2024-02-21T04:43:51;9.70;99.90
13798;DHT22;6970;51.340;3.240;2024-02-21T04:46:21;9.60;99.90
13798;DHT22;6970;51.340;3.240;2024-02-21T04:48:51;9.70;99.90
13798;DHT22;6970;51.340;3.240;2024-02-21T04:51:20;9.70;99.90
13798;DHT22;6970;51.340;3.240;2024-02-21T04:53:51;9.70;99.90
13798;DHT22;6970;51.340;3.240;2024-02-21T04:56:21;9.70;99.90
13798;DHT22;6970;51.340;3.240;2024-02-21T04:58:48;9.70;99.90
13798;DHT22;6970;51.340;3.240;2024-02-21T05:01:15;9.70;99.90
13798;DHT22;6970;51.340;3.240;2024-02-21T05:03:42;9.60;99.90
13798;DHT22;6970;51.340;3.240;2024-02-21T05:06:10;9.60;99.90
13798;DHT22;6970;51.340;3.240;2024-02-21T05:08:37;9.60;99.90
13798;DHT22;6970;51.340;3.240;2024-02-21T05:11:07;9.60;99.90
13798;DHT22;6970;51.340;3.240;2024-02-21T05:13:37;9.60;99.90
13798;DHT22;6970;51.340;3.240;2024-02-21T05:16:06;9.70;99.90
13798;DHT22;6970;51.340;3.240;2024-02-21T05:18:35;9.70;99.90
13798;DHT22;6970;51.340;3.240;2024-02-21T05:21:03;9.60;99.90
13798;DHT22;6970;51.340;3.240;2024-02-21T05:23:31;9.60;99.90
13798;DHT22;6970;51.340;3.240;2024-02-21T05:25:59;9.60;99.90
13798;DHT22;6970;51.340;3.240;2024-02-21T05:28:30;9.60;99.90
13798;DHT22;6970;51.340;3.240;2024-02-21T05:31:00;9.60;99.90
13798;DHT22;6970;51.340;3.240;2024-02-21T05:33:30;9.60;99.90
13798;DHT22;6970;51.340;3.240;2024-02-21T05:35:59;9.60;99.90
13798;DHT22;6970;51.340;3.240;2024-02-21T05:38:26;9.60;99.90
13798;DHT22;6970;51.340;3.240;2024-02-21T05:40:54;9.60;99.90
13798;DHT22;6970;51.340;3.240;2024-02-21T05:43:23;9.60;99.90
13798;DHT22;6970;51.340;3.240;2024-02-21T05:45:51;9.60;99.90
13798;DHT22;6970;51.340;3.240;2024-02-21T05:48:22;9.60;99.90
13798;DHT22;6970;51.340;3.240;2024-02-21T05:50:52;9.60;99.90
13798;DHT22;6970;51.340;3.240;2024-02-21T05:53:22;9.60;99.90
13798;DHT22;6970;51.340;3.240;2024-02-21T05:55:52;9.60;99.90
13798;DHT22;6970;51.340;3.240;2024-02-21T05:58:23;9.60;99.90
13798;DHT22;6970;51.340;3.240;2024-02-21T06:00:51;9.70;99.90
13798;DHT22;6970;51.340;3.240;2024-02-21T06:03:19;9.60;99.90
13798;DHT22;6970;51.340;3.240;2024-02-21T06:05:50;9.60;99.90
13798;DHT22;6970;51.340;3.240;2024-02-21T06:08:20;9.70;99.90
13798;DHT22;6970;51.340;3.240;2024-02-21T06:10:50;9.60;99.90
13798;DHT22;6970;51.340;3.240;2024-02-21T06:13:26;9.60;99.90
13798;DHT22;6970;51.340;3.240;2024-02-21T06:15:56;9.60;99.90
13798;DHT22;6970;51.340;3.240;2024-02-21T06:18:25;9.60;99.90
13798;DHT22;6970;51.340;3.240;2024-02-21T06:20:55;9.60;99.90
13798;DHT22;6970;51.340;3.240;2024-02-21T06:23:23;9.60;99.90
13798;DHT22;6970;51.340;3.240;2024-02-21T06:25:53;9.70;99.90
13798;DHT22;6970;51.340;3.240;2024-02-21T06:28:23;9.60;99.90
13798;DHT22;6970;51.340;3.240;2024-02-21T06:30:54;9.60;99.90
13798;DHT22;6970;51.340;3.240;2024-02-21T06:33:22;9.60;99.90
13798;DHT22;6970;51.340;3.240;2024-02-21T06:35:52;9.60;99.90
13798;DHT22;6970;51.340;3.240;2024-02-21T06:38:20;9.70;99.90
13798;DHT22;6970;51.340;3.240;2024-02-21T06:40:50;9.60;99.90
13798;DHT22;6970;51.340;3.240;2024-02-21T06:43:20;9.70;99.90
13798;DHT22;6970;51.340;3.240;2024-02-21T06:45:48;9.70;99.90
13798;DHT22;6970;51.340;3.240;2024-02-21T06:48:18;9.70;99.90
13798;DHT22;6970;51.340;3.240;2024-02-21T06:50:47;9.70;99.90
13798;DHT22;6970;51.340;3.240;2024-02-21T06:53:18;9.70;99.90
13798;DHT22;6970;51.340;3.240;2024-02-21T06:55:51;9.70;99.90
13798;DHT22;6970;51.340;3.240;2024-02-21T06:58:20;9.70;99.90
13798;DHT22;6970;51.340;3.240;2024-02-21T07:00:47;9.70;99.90
13798;DHT22;6970;51.340;3.240;2024-02-21T07:03:17;9.70;99.90
13798;DHT22;6970;51.340;3.240;2024-02-21T07:05:47;9.70;99.90
13798;DHT22;6970;51.340;3.240;2024-02-21T07:08:14;9.70;99.90
13798;DHT22;6970;51.340;3.240;2024-02-21T07:10:41;9.70;99.90
13798;DHT22;6970;51.340;3.240;2024-02-21T07:13:10;9.70;99.90
13798;DHT22;6970;51.340;3.240;2024-02-21T07:15:37;9.70;99.90
13798;DHT22;6970;51.340;3.240;2024-02-21T07:18:08;9.70;99.90
13798;DHT22;6970;51.340;3.240;2024-02-21T07:20:36;9.70;99.90
13798;DHT22;6970;51.340;3.240;2024-02-21T07:23:04;9.70;99.90
13798;DHT22;6970;51.340;3.240;2024-02-21T07:25:31;9.70;99.90
13798;DHT22;6970;51.340;3.240;2024-02-21T07:28:00;9.70;99.90
13798;DHT22;6970;51.340;3.240;2024-02-21T07:30:30;9.70;99.90
13798;DHT22;6970;51.340;3.240;2024-02-21T07:32:57;9.70;99.90
13798;DHT22;6970;51.340;3.240;2024-02-21T07:35:26;9.70;99.90
13798;DHT22;6970;51.340;3.240;2024-02-21T07:37:54;9.70;99.90
13798;DHT22;6970;51.340;3.240;2024-02-21T07:40:23;9.70;99.90
13798;DHT22;6970;51.340;3.240;2024-02-21T07:42:52;9.70;99.90
13798;DHT22;6970;51.340;3.240;2024-02-21T07:45:20;9.70;99.90
13798;DHT22;6970;51.340;3.240;2024-02-21T07:47:51;9.70;99.90
13798;DHT22;6970;51.340;3.240;2024-02-21T07:50:20;9.70;99.90
13798;DHT22;6970;51.340;3.240;2024-02-21T07:52:48;9.70;99.90
13798;DHT22;6970;51.340;3.240;2024-02-21T07:55:19;9.80;99.90
13798;DHT22;6970;51.340;3.240;2024-02-21T07:57:46;9.80;99.90
13798;DHT22;6970;51.340;3.240;2024-02-21T08:00:16;9.80;99.90
13798;DHT22;6970;51.340;3.240;2024-02-21T08:02:48;9.80;99.90
13798;DHT22;6970;51.340;3.240;2024-02-21T08:05:17;9.80;99.90
13798;DHT22;6970;51.340;3.240;2024-02-21T08:07:46;9.80;99.90
13798;DHT22;6970;51.340;3.240;2024-02-21T08:10:15;9.80;99.90
13798;DHT22;6970;51.340;3.240;2024-02-21T08:12:45;9.80;99.90
13798;DHT22;6970;51.340;3.240;2024-02-21T08:15:15;9.80;99.90
13798;DHT22;6970;51.340;3.240;2024-02-21T08:17:42;9.80;99.90
13798;DHT22;6970;51.340;3.240;2024-02-21T08:20:11;9.80;99.90
13798;DHT22;6970;51.340;3.240;2024-02-21T08:22:41;9.80;99.90
13798;DHT22;6970;51.340;3.240;2024-02-21T08:25:08;9.80;99.90
13798;DHT22;6970;51.340;3.240;2024-02-21T08:27:37;9.80;99.90
13798;DHT22;6970;51.340;3.240;2024-02-21T08:30:05;9.80;99.90
13798;DHT22;6970;51.340;3.240;2024-02-21T08:32:37;9.80;99.90
13798;DHT22;6970;51.340;3.240;2024-02-21T08:35:05;9.80;99.90
13798;DHT22;6970;51.340;3.240;2024-02-21T08:37:35;9.80;99.90
13798;DHT22;6970;51.340;3.240;2024-02-21T08:40:04;9.90;99.90
13798;DHT22;6970;51.340;3.240;2024-02-21T08:42:38;9.90;99.90
13798;DHT22;6970;51.340;3.240;2024-02-21T08:45:05;9.90;99.90
13798;DHT22;6970;51.340;3.240;2024-02-21T08:47:32;9.90;99.90
13798;DHT22;6970;51.340;3.240;2024-02-21T08:50:02;9.90;99.90
13798;DHT22;6970;51.340;3.240;2024-02-21T08:52:47;9.90;99.90
13798;DHT22;6970;51.340;3.240;2024-02-21T08:55:20;9.90;99.90
13798;DHT22;6970;51.340;3.240;2024-02-21T08:57:48;10.00;99.90
13798;DHT22;6970;51.340;3.240;2024-02-21T09:00:16;10.00;99.90
13798;DHT22;6970;51.340;3.240;2024-02-21T09:02:43;10.00;99.90
13798;DHT22;6970;51.340;3.240;2024-02-21T09:05:13;10.00;99.90
13798;DHT22;6970;51.340;3.240;2024-02-21T09:07:42;10.00;99.90
13798;DHT22;6970;51.340;3.240;2024-02-21T09:10:15;10.00;99.90
13798;DHT22;6970;51.340;3.240;2024-02-21T09:12:44;10.00;99.90
13798;DHT22;6970;51.340;3.240;2024-02-21T09:15:12;10.00;99.90
13798;DHT22;6970;51.340;3.240;2024-02-21T09:17:43;10.10;99.90
13798;DHT22;6970;51.340;3.240;2024-02-21T09:20:13;10.10;99.90
13798;DHT22;6970;51.340;3.240;2024-02-21T09:22:46;10.10;99.90
13798;DHT22;6970;51.340;3.240;2024-02-21T09:25:13;10.10;99.90
13798;DHT22;6970;51.340;3.240;2024-02-21T09:27:44;10.10;99.90
13798;DHT22;6970;51.340;3.240;2024-02-21T09:30:12;10.10;99.90
13798;DHT22;6970;51.340;3.240;2024-02-21T09:32:39;10.10;99.90
13798;DHT22;6970;51.340;3.240;2024-02-21T09:35:07;10.10;99.90
13798;DHT22;6970;51.340;3.240;2024-02-21T09:37:36;10.20;99.90
13798;DHT22;6970;51.340;3.240;2024-02-21T09:40:11;10.20;99.90
13798;DHT22;6970;51.340;3.240;2024-02-21T09:42:40;10.20;99.90
13798;DHT22;6970;51.340;3.240;2024-02-21T09:45:28;10.30;99.90
13798;DHT22;6970;51.340;3.240;2024-02-21T09:51:15;10.30;99.90
13798;DHT22;6970;51.340;3.240;2024-02-21T09:53:44;10.30;99.90
13798;DHT22;6970;51.340;3.240;2024-02-21T09:56:28;10.30;99.90
13798;DHT22;6970;51.340;3.240;2024-02-21T09:59:02;10.30;99.90
13798;DHT22;6970;51.340;3.240;2024-02-21T10:01:32;10.30;99.90
13798;DHT22;6970;51.340;3.240;2024-02-21T10:04:01;10.40;99.90
13798;DHT22;6970;51.340;3.240;2024-02-21T10:06:32;10.40;99.90
13798;DHT22;6970;51.340;3.240;2024-02-21T10:08:59;10.40;99.90
13798;DHT22;6970;51.340;3.240;2024-02-21T10:11:32;10.50;99.90
13798;DHT22;6970;51.340;3.240;2024-02-21T10:14:06;10.50;99.90
13798;DHT22;6970;51.340;3.240;2024-02-21T10:16:34;10.60;99.90
13798;DHT22;6970;51.340;3.240;2024-02-21T10:19:03;10.70;99.90
13798;DHT22;6970;51.340;3.240;2024-02-21T10:21:33;10.90;99.90
13798;DHT22;6970;51.340;3.240;2024-02-21T10:24:00;11.10;99.90
13798;DHT22;6970;51.340;3.240;2024-02-21T10:26:33;11.30;99.90
13798;DHT22;6970;51.340;3.240;2024-02-21T10:29:03;11.40;99.90
13798;DHT22;6970;51.340;3.240;2024-02-21T10:31:34;11.60;99.90
13798;DHT22;6970;51.340;3.240;2024-02-21T10:34:03;11.70;99.90
13798;DHT22;6970;51.340;3.240;2024-02-21T10:36:35;11.70;99.90
13798;DHT22;6970;51.340;3.240;2024-02-21T10:39:06;11.50;99.90
13798;DHT22;6970;51.340;3.240;2024-02-21T10:41:36;11.50;99.90
13798;DHT22;6970;51.340;3.240;2024-02-21T10:44:07;11.50;99.90
13798;DHT22;6970;51.340;3.240;2024-02-21T10:46:38;11.50;99.90
13798;DHT22;6970;51.340;3.240;2024-02-21T10:49:26;11.40;99.90
13798;DHT22;6970;51.340;3.240;2024-02-21T10:54:58;11.20;99.90
13798;DHT22;6970;51.340;3.240;2024-02-21T10:57:27;11.10;99.90
13798;DHT22;6970;51.340;3.240;2024-02-21T10:59:56;11.20;99.90
13798;DHT22;6970;51.340;3.240;2024-02-21T11:02:27;11.10;99.90
13798;DHT22;6970;51.340;3.240;2024-02-21T11:04:58;11.00;99.90
13798;DHT22;6970;51.340;3.240;2024-02-21T11:07:26;11.00;99.90
13798;DHT22;6970;51.340;3.240;2024-02-21T11:09:54;10.90;99.90
13798;DHT22;6970;51.340;3.240;2024-02-21T11:12:25;10.90;99.90
13798;DHT22;6970;51.340;3.240;2024-02-21T11:15:06;10.90;99.90
13798;DHT22;6970;51.340;3.240;2024-02-21T11:17:35;11.20;99.90
13798;DHT22;6970;51.340;3.240;2024-02-21T11:20:17;11.40;99.90
13798;DHT22;6970;51.340;3.240;2024-02-21T11:22:48;11.60;99.90
13798;DHT22;6970;51.340;3.240;2024-02-21T11:25:31;11.70;99.90
13798;DHT22;6970;51.340;3.240;2024-02-21T11:28:06;11.70;99.90
13798;DHT22;6970;51.340;3.240;2024-02-21T11:30:37;11.70;99.90
13798;DHT22;6970;51.340;3.240;2024-02-21T11:33:10;11.60;99.90
13798;DHT22;6970;51.340;3.240;2024-02-21T11:35:41;11.60;99.90
13798;DHT22;6970;51.340;3.240;2024-02-21T11:38:12;11.60;99.90
13798;DHT22;6970;51.340;3.240;2024-02-21T11:40:47;11.50;99.90
13798;DHT22;6970;51.340;3.240;2024-02-21T11:43:17;11.40;99.90
13798;DHT22;6970;51.340;3.240;2024-02-21T11:45:48;11.40;99.90
13798;DHT22;6970;51.340;3.240;2024-02-21T11:48:16;11.30;99.90
13798;DHT22;6970;51.340;3.240;2024-02-21T11:50:53;11.30;99.90
13798;DHT22;6970;51.340;3.240;2024-02-21T11:53:21;11.30;99.90
13798;DHT22;6970;51.340;3.240;2024-02-21T11:55:49;11.30;99.90
13798;DHT22;6970;51.340;3.240;2024-02-21T11:58:16;11.20;99.90
13798;DHT22;6970;51.340;3.240;2024-02-21T12:00:46;11.20;99.90
13798;DHT22;6970;51.340;3.240;2024-02-21T12:03:15;11.20;99.90
13798;DHT22;6970;51.340;3.240;2024-02-21T12:05:43;11.20;99.90
13798;DHT22;6970;51.340;3.240;2024-02-21T12:08:14;11.10;99.90
13798;DHT22;6970;51.340;3.240;2024-02-21T12:10:44;11.10;99.90
13798;DHT22;6970;51.340;3.240;2024-02-21T12:13:23;11.10;99.90
13798;DHT22;6970;51.340;3.240;2024-02-21T12:15:54;11.00;99.90
13798;DHT22;6970;51.340;3.240;2024-02-21T12:18:24;11.00;99.90
13798;DHT22;6970;51.340;3.240;2024-02-21T12:20:54;11.00;99.90
13798;DHT22;6970;51.340;3.240;2024-02-21T12:23:27;11.00;99.90
13798;DHT22;6970;51.340;3.240;2024-02-21T12:25:58;10.90;99.90
13798;DHT22;6970;51.340;3.240;2024-02-21T12:28:27;10.90;99.90
13798;DHT22;6970;51.340;3.240;2024-02-21T12:30:54;10.90;99.90
13798;DHT22;6970;51.340;3.240;2024-02-21T12:33:22;10.90;99.90
13798;DHT22;6970;51.340;3.240;2024-02-21T12:35:53;10.90;99.90
13798;DHT22;6970;51.340;3.240;2024-02-21T12:38:30;10.90;99.90
13798;DHT22;6970;51.340;3.240;2024-02-21T12:41:01;10.90;99.90
13798;DHT22;6970;51.340;3.240;2024-02-21T12:43:31;10.90;99.90
13798;DHT22;6970;51.340;3.240;2024-02-21T12:46:02;10.90;99.90
13798;DHT22;6970;51.340;3.240;2024-02-21T12:48:32;10.80;99.90
13798;DHT22;6970;51.340;3.240;2024-02-21T12:51:03;10.80;99.90
13798;DHT22;6970;51.340;3.240;2024-02-21T12:53:32;10.80;99.90
13798;DHT22;6970;51.340;3.240;2024-02-21T12:56:02;10.80;99.90
13798;DHT22;6970;51.340;3.240;2024-02-21T12:58:32;10.80;99.90
13798;DHT22;6970;51.340;3.240;2024-02-21T13:01:00;10.80;99.90
13798;DHT22;6970;51.340;3.240;2024-02-21T13:03:29;10.80;99.90
13798;DHT22;6970;51.340;3.240;2024-02-21T13:06:03;10.70;99.90
13798;DHT22;6970;51.340;3.240;2024-02-21T13:08:31;10.70;99.90
13798;DHT22;6970;51.340;3.240;2024-02-21T13:11:01;10.70;99.90
13798;DHT22;6970;51.340;3.240;2024-02-21T13:13:31;10.60;99.90
13798;DHT22;6970;51.340;3.240;2024-02-21T13:16:00;10.60;99.90
13798;DHT22;6970;51.340;3.240;2024-02-21T13:18:29;10.50;99.90
13798;DHT22;6970;51.340;3.240;2024-02-21T13:20:58;10.50;99.90
13798;DHT22;6970;51.340;3.240;2024-02-21T13:23:28;10.40;99.90
13798;DHT22;6970;51.340;3.240;2024-02-21T13:25:58;10.40;99.90
13798;DHT22;6970;51.340;3.240;2024-02-21T13:28:28;10.40;99.90
13798;DHT22;6970;51.340;3.240;2024-02-21T13:30:58;10.30;99.90
13798;DHT22;6970;51.340;3.240;2024-02-21T13:33:26;10.30;99.90
13798;DHT22;6970;51.340;3.240;2024-02-21T13:35:56;10.30;99.90
13798;DHT22;6970;51.340;3.240;2024-02-21T13:38:24;10.30;99.90
13798;DHT22;6970;51.340;3.240;2024-02-21T13:40:53;10.30;99.90
13798;DHT22;6970;51.340;3.240;2024-02-21T13:43:24;10.30;99.90
13798;DHT22;6970;51.340;3.240;2024-02-21T13:45:57;10.20;99.90
13798;DHT22;6970;51.340;3.240;2024-02-21T13:48:27;10.20;99.90
13798;DHT22;6970;51.340;3.240;2024-02-21T13:50:56;10.20;99.90
13798;DHT22;6970;51.340;3.240;2024-02-21T13:53:26;10.20;99.90
13798;DHT22;6970;51.340;3.240;2024-02-21T13:55:53;10.20;99.90
13798;DHT22;6970;51.340;3.240;2024-02-21T13:58:24;10.20;99.90
13798;DHT22;6970;51.340;3.240;2024-02-21T14:00:56;10.20;99.90
13798;DHT22;6970;51.340;3.240;2024-02-21T14:03:26;10.20;99.90
13798;DHT22;6970;51.340;3.240;2024-02-21T14:05:56;10.20;99.90
13798;DHT22;6970;51.340;3.240;2024-02-21T14:08:24;10.20;99.90
13798;DHT22;6970;51.340;3.240;2024-02-21T14:10:51;10.10;99.90
13798;DHT22;6970;51.340;3.240;2024-02-21T14:13:19;10.10;99.90
13798;DHT22;6970;51.340;3.240;2024-02-21T14:15:49;10.10;99.90
13798;DHT22;6970;51.340;3.240;2024-02-21T14:18:20;10.10;99.90
13798;DHT22;6970;51.340;3.240;2024-02-21T14:20:51;10.10;99.90
13798;DHT22;6970;51.340;3.240;2024-02-21T14:23:19;10.10;99.90
13798;DHT22;6970;51.340;3.240;2024-02-21T14:25:46;10.10;99.90
13798;DHT22;6970;51.340;3.240;2024-02-21T14:28:13;10.10;99.90
13798;DHT22;6970;51.340;3.240;2024-02-21T14:30:40;10.00;99.90
13798;DHT22;6970;51.340;3.240;2024-02-21T14:33:07;10.00;99.90
13798;DHT22;6970;51.340;3.240;2024-02-21T14:35:37;10.00;99.90
13798;DHT22;6970;51.340;3.240;2024-02-21T14:38:06;10.00;99.90
13798;DHT22;6970;51.340;3.240;2024-02-21T14:40:33;10.00;99.90
13798;DHT22;6970;51.340;3.240;2024-02-21T14:43:01;10.00;99.90
13798;DHT22;6970;51.340;3.240;2024-02-21T14:45:29;10.00;99.90
13798;DHT22;6970;51.340;3.240;2024-02-21T14:47:57;10.00;99.90
13798;DHT22;6970;51.340;3.240;2024-02-21T14:50:24;10.00;99.90
13798;DHT22;6970;51.340;3.240;2024-02-21T14:52:54;10.00;99.90
13798;DHT22;6970;51.340;3.240;2024-02-21T14:55:24;10.00;99.90
13798;DHT22;6970;51.340;3.240;2024-02-21T14:58:06;10.00;99.90
13798;DHT22;6970;51.340;3.240;2024-02-21T15:00:36;10.10;99.90
13798;DHT22;6970;51.340;3.240;2024-02-21T15:03:07;10.10;99.90
13798;DHT22;6970;51.340;3.240;2024-02-21T15:05:34;10.10;99.90
13798;DHT22;6970;51.340;3.240;2024-02-21T15:08:01;10.00;99.90
13798;DHT22;6970;51.340;3.240;2024-02-21T15:10:30;10.00;99.90
13798;DHT22;6970;51.340;3.240;2024-02-21T15:12:58;10.10;99.90
13798;DHT22;6970;51.340;3.240;2024-02-21T15:15:28;10.00;99.90
13798;DHT22;6970;51.340;3.240;2024-02-21T15:17:57;10.10;99.90
13798;DHT22;6970;51.340;3.240;2024-02-21T15:20:27;10.10;99.90
13798;DHT22;6970;51.340;3.240;2024-02-21T15:22:56;10.10;99.90
13798;DHT22;6970;51.340;3.240;2024-02-21T15:25:27;10.10;99.90
13798;DHT22;6970;51.340;3.240;2024-02-21T15:27:57;10.10;99.90
13798;DHT22;6970;51.340;3.240;2024-02-21T15:30:25;10.10;99.90
13798;DHT22;6970;51.340;3.240;2024-02-21T15:32:54;10.10;99.90
13798;DHT22;6970;51.340;3.240;2024-02-21T15:35:25;10.10;99.90
13798;DHT22;6970;51.340;3.240;2024-02-21T15:37:53;10.10;99.90
13798;DHT22;6970;51.340;3.240;2024-02-21T15:40:24;10.10;99.90
13798;DHT22;6970;51.340;3.240;2024-02-21T15:42:54;10.10;99.90
13798;DHT22;6970;51.340;3.240;2024-02-21T15:45:25;10.10;99.90
13798;DHT22;6970;51.340;3.240;2024-02-21T15:47:58;10.10;99.90
13798;DHT22;6970;51.340;3.240;2024-02-21T15:50:27;10.10;99.90
13798;DHT22;6970;51.340;3.240;2024-02-21T15:52:58;10.10;99.90
13798;DHT22;6970;51.340;3.240;2024-02-21T15:55:28;10.10;99.90
13798;DHT22;6970;51.340;3.240;2024-02-21T15:57:58;10.10;99.90
13798;DHT22;6970;51.340;3.240;2024-02-21T16:00:29;10.10;99.90
13798;DHT22;6970;51.340;3.240;2024-02-21T16:02:58;10.10;99.90
13798;DHT22;6970;51.340;3.240;2024-02-21T16:05:28;10.10;99.90
13798;DHT22;6970;51.340;3.240;2024-02-21T16:07:56;10.10;99.90
13798;DHT22;6970;51.340;3.240;2024-02-21T16:10:27;10.10;99.90
13798;DHT22;6970;51.340;3.240;2024-02-21T16:12:57;10.10;99.90
13798;DHT22;6970;51.340;3.240;2024-02-21T16:15:25;10.10;99.90
13798;DHT22;6970;51.340;3.240;2024-02-21T16:17:53;10.10;99.90